createdAt,value
2023-04-27T00:03:32.171Z,3.40
2023-04-27T00:08:37.589Z,3.30
2023-04-27T00:13:43.375Z,3.20
2023-04-27T00:18:48.984Z,3.00
2023-04-27T00:23:55.336Z,2.90
2023-04-27T00:29:00.417Z,2.90
2023-04-27T00:34:05.657Z,2.90
2023-04-27T00:39:10.868Z,2.90
2023-04-27T00:44:19.077Z,2.80
2023-04-27T00:49:27.132Z,2.70
2023-04-27T00:54:33.450Z,2.70
2023-04-27T00:59:40.586Z,2.60
2023-04-27T01:04:45.695Z,2.50
2023-04-27T01:09:51.061Z,2.50
2023-04-27T01:14:57.300Z,2.40
2023-04-27T01:20:02.771Z,2.30
2023-04-27T01:25:08.569Z,2.30
2023-04-27T01:30:14.044Z,2.20
2023-04-27T01:35:19.368Z,2.30
2023-04-27T01:40:24.487Z,2.30
2023-04-27T01:45:29.681Z,2.40
2023-04-27T01:50:34.947Z,2.40
2023-04-27T01:55:40.222Z,2.30
2023-04-27T02:00:45.433Z,2.40
2023-04-27T02:05:50.825Z,2.40
2023-04-27T02:10:56.169Z,2.50
2023-04-27T02:16:03.689Z,2.50
2023-04-27T02:21:11.982Z,2.50
2023-04-27T02:26:22.650Z,2.50
2023-04-27T02:31:27.762Z,2.50
2023-04-27T02:36:33.052Z,2.50
2023-04-27T02:41:38.285Z,2.60
2023-04-27T02:46:43.541Z,2.50
2023-04-27T02:51:48.965Z,2.50
2023-04-27T02:56:54.095Z,2.40
2023-04-27T03:01:59.305Z,2.40
2023-04-27T03:07:05.303Z,2.50
2023-04-27T03:12:10.408Z,2.40
2023-04-27T03:17:15.748Z,2.40
2023-04-27T03:22:20.965Z,2.30
2023-04-27T03:27:26.078Z,2.20
2023-04-27T03:32:31.366Z,2.30
2023-04-27T03:37:36.691Z,2.30
2023-04-27T03:42:42.019Z,2.30
2023-04-27T03:47:47.264Z,2.40
2023-04-27T03:52:52.545Z,2.50
2023-04-27T03:57:58.026Z,2.70
2023-04-27T04:03:03.503Z,2.80
2023-04-27T04:13:49.486Z,3.00
2023-04-27T04:19:04.112Z,3.20
2023-04-27T04:24:15.881Z,3.30
2023-04-27T04:29:23.760Z,3.40
2023-04-27T04:34:29.788Z,3.50
2023-04-27T04:39:36.558Z,3.60
2023-04-27T04:44:41.768Z,3.80
2023-04-27T04:49:56.408Z,4.00
2023-04-27T04:55:16.561Z,4.10
2023-04-27T05:00:31.320Z,4.20
2023-04-27T05:05:49.439Z,4.30
2023-04-27T05:11:00.156Z,4.60
2023-04-27T05:16:10.180Z,4.90
2023-04-27T05:21:28.869Z,5.20
2023-04-27T05:26:35.598Z,5.60
2023-04-27T05:31:42.503Z,6.00
2023-04-27T05:36:53.246Z,6.40
2023-04-27T05:41:59.151Z,6.80
2023-04-27T05:47:06.479Z,7.20
2023-04-27T05:52:12.883Z,7.50
2023-04-27T05:57:18.268Z,7.80
2023-04-27T06:02:24.478Z,8.10
2023-04-27T06:07:30.836Z,8.60
2023-04-27T06:12:36.301Z,8.90
2023-04-27T06:17:44.250Z,9.30
2023-04-27T06:22:49.725Z,9.70
2023-04-27T06:27:56.566Z,10.00
2023-04-27T06:33:02.430Z,10.30
2023-04-27T06:38:08.306Z,10.50
2023-04-27T06:43:14.954Z,11.00
2023-04-27T06:48:20.584Z,11.20
2023-04-27T06:53:26.453Z,11.60
2023-04-27T06:58:32.880Z,12.30
2023-04-27T07:03:38.707Z,13.00
2023-04-27T07:08:45.289Z,12.70
2023-04-27T07:13:50.760Z,12.40
2023-04-27T07:18:56.052Z,13.10
2023-04-27T07:24:02.141Z,13.00
2023-04-27T07:29:19.028Z,13.20
2023-04-27T07:34:14.106Z,12.60
2023-04-27T07:39:19.661Z,13.40
2023-04-27T07:44:24.983Z,13.70
2023-04-27T07:49:30.720Z,14.50
2023-04-27T07:54:36.643Z,14.20
2023-04-27T07:59:41.972Z,12.90
2023-04-27T08:04:48.168Z,12.80
2023-04-27T08:09:54.158Z,12.80
2023-04-27T08:14:59.368Z,12.10
2023-04-27T08:20:05.234Z,11.70
2023-04-27T08:25:11.191Z,12.70
2023-04-27T08:30:16.607Z,12.80
2023-04-27T08:35:21.811Z,12.70
2023-04-27T08:40:27.086Z,12.30
2023-04-27T08:45:32.209Z,11.80
2023-04-27T08:50:39.683Z,11.60
2023-04-27T08:55:45.533Z,12.20
2023-04-27T09:00:52.682Z,12.50
2023-04-27T09:06:05.031Z,13.90
2023-04-27T09:11:04.739Z,13.20
2023-04-27T09:16:11.065Z,12.40
2023-04-27T09:21:24.703Z,11.50
2023-04-27T09:26:31.819Z,11.10
2023-04-27T09:31:38.187Z,10.90
2023-04-27T09:36:44.454Z,12.00
2023-04-27T09:41:50.698Z,13.80
2023-04-27T09:46:58.594Z,13.10
2023-04-27T09:52:04.601Z,13.40
2023-04-27T09:57:24.679Z,13.00
2023-04-27T10:02:35.093Z,12.30
2023-04-27T10:07:41.512Z,12.00
2023-04-27T10:13:01.726Z,12.60
2023-04-27T10:18:07.703Z,13.60
2023-04-27T10:23:14.536Z,14.10
2023-04-27T10:28:22.122Z,15.10
2023-04-27T10:33:27.682Z,13.70
2023-04-27T10:38:33.563Z,12.90
2023-04-27T10:43:39.266Z,12.60
2023-04-27T10:48:48.644Z,12.20
2023-04-27T10:53:54.889Z,12.10
2023-04-27T10:59:05.141Z,12.40
2023-04-27T11:04:10.710Z,13.10
2023-04-27T11:09:18.067Z,12.70
2023-04-27T11:14:23.548Z,12.40
2023-04-27T11:19:30.482Z,12.40
2023-04-27T11:24:35.977Z,13.00
2023-04-27T11:29:41.803Z,13.20
2023-04-27T11:34:56.102Z,12.60
2023-04-27T11:40:02.144Z,12.20
2023-04-27T11:45:07.972Z,12.10
2023-04-27T11:50:13.367Z,11.90
2023-04-27T11:55:20.127Z,12.00
2023-04-27T12:00:25.611Z,12.40
2023-04-27T12:05:31.277Z,12.80
2023-04-27T12:10:37.507Z,13.00
2023-04-27T12:15:45.096Z,12.80
2023-04-27T12:20:50.755Z,13.00
2023-04-27T12:25:56.040Z,12.70
2023-04-27T12:31:04.666Z,12.80
2023-04-27T12:36:13.202Z,12.70
2023-04-27T12:41:18.376Z,12.60
2023-04-27T12:46:23.581Z,12.30
2023-04-27T12:51:29.620Z,11.90
2023-04-27T12:56:37.900Z,11.80
2023-04-27T13:01:43.253Z,11.90
2023-04-27T13:06:50.178Z,12.30
2023-04-27T13:11:59.277Z,12.60
2023-04-27T13:17:07.039Z,13.10
2023-04-27T13:22:14.334Z,13.90
2023-04-27T13:27:22.524Z,14.30
2023-04-27T13:32:33.193Z,13.80
2023-04-27T13:37:42.569Z,13.60
2023-04-27T13:42:48.016Z,13.30
2023-04-27T13:47:59.190Z,13.10
2023-04-27T13:53:13.322Z,12.80
2023-04-27T13:58:21.450Z,13.00
2023-04-27T14:03:29.975Z,13.40
2023-04-27T14:08:36.721Z,13.70
2023-04-27T14:13:42.134Z,12.70
2023-04-27T14:18:48.471Z,12.70
2023-04-27T14:23:55.684Z,12.80
2023-04-27T14:29:02.235Z,12.70
2023-04-27T14:34:08.933Z,12.40
2023-04-27T14:39:15.196Z,12.30
2023-04-27T14:44:21.613Z,12.20
2023-04-27T14:49:28.887Z,12.30
2023-04-27T14:54:35.998Z,12.80
2023-04-27T14:59:41.352Z,12.80
2023-04-27T15:04:46.670Z,12.30
2023-04-27T15:09:54.668Z,12.10
2023-04-27T15:14:59.938Z,12.10
2023-04-27T15:20:06.719Z,11.80
2023-04-27T15:25:12.126Z,11.70
2023-04-27T15:30:17.546Z,11.60
2023-04-27T15:35:23.319Z,11.50
2023-04-27T15:40:28.619Z,11.30
2023-04-27T15:45:34.250Z,11.20
2023-04-27T15:50:39.769Z,11.10
2023-04-27T15:55:45.050Z,11.10
2023-04-27T16:00:50.616Z,11.10
2023-04-27T16:06:00.166Z,11.30
2023-04-27T16:11:05.611Z,11.50
2023-04-27T16:16:18.631Z,11.70
2023-04-27T16:21:26.281Z,11.70
2023-04-27T16:26:36.687Z,11.50
2023-04-27T16:31:43.227Z,11.20
2023-04-27T16:36:50.311Z,10.90
2023-04-27T16:42:02.051Z,10.70
2023-04-27T16:47:07.372Z,10.70
2023-04-27T16:52:18.089Z,10.80
2023-04-27T16:57:26.200Z,10.90
2023-04-27T17:02:31.907Z,10.80
2023-04-27T17:07:38.383Z,10.70
2023-04-27T17:12:44.521Z,10.60
2023-04-27T17:17:49.972Z,10.40
2023-04-27T17:22:55.251Z,10.20
2023-04-27T17:28:01.583Z,10.00
2023-04-27T17:33:07.339Z,9.80
2023-04-27T17:38:23.009Z,9.60
2023-04-27T17:43:39.494Z,9.40
2023-04-27T17:48:45.100Z,9.30
2023-04-27T17:53:50.400Z,9.10
2023-04-27T17:58:55.562Z,9.00
2023-04-27T18:04:03.998Z,9.00
2023-04-27T18:09:07.708Z,8.80
2023-04-27T18:14:21.693Z,8.70
2023-04-27T18:20:07.560Z,8.50
2023-04-27T18:25:04.732Z,8.30
2023-04-27T18:30:10.159Z,8.00
2023-04-27T18:35:16.328Z,7.70
2023-04-27T18:40:22.677Z,7.50
2023-04-27T18:45:30.807Z,7.30
2023-04-27T18:50:36.044Z,7.10
2023-04-27T18:55:41.641Z,6.80
2023-04-27T19:00:47.484Z,6.60
2023-04-27T19:05:52.944Z,6.40
2023-04-27T19:10:58.636Z,6.20
2023-04-27T19:16:06.489Z,6.10
2023-04-27T19:21:12.947Z,5.90
2023-04-27T19:26:18.722Z,5.70
2023-04-27T19:31:24.252Z,5.60
2023-04-27T19:36:29.456Z,5.40
2023-04-27T19:41:34.795Z,5.30
2023-04-27T19:46:40.036Z,5.10
2023-04-27T19:57:31.305Z,5.10
2023-04-27T20:02:36.536Z,5.10
2023-04-27T20:07:48.979Z,5.20
2023-04-27T20:12:57.083Z,5.30
2023-04-27T20:18:00.989Z,5.40
2023-04-27T20:23:06.683Z,5.40
2023-04-27T20:28:11.811Z,5.50
2023-04-27T20:33:17.942Z,5.50
2023-04-27T20:38:23.962Z,5.50
2023-04-27T20:43:29.038Z,5.60
2023-04-27T20:48:34.487Z,5.50
2023-04-27T20:53:40.378Z,5.40
2023-04-27T20:58:45.571Z,5.40
2023-04-27T21:03:57.923Z,5.30
2023-04-27T21:09:03.156Z,5.20
2023-04-27T21:14:08.407Z,5.20
2023-04-27T21:19:15.355Z,5.20
2023-04-27T21:24:20.889Z,5.10
2023-04-27T21:29:28.587Z,5.00
2023-04-27T21:34:34.349Z,4.80
2023-04-27T21:39:39.408Z,4.60
2023-04-27T21:44:44.475Z,4.40
2023-04-27T21:49:51.827Z,4.30
2023-04-27T21:54:56.392Z,4.20
2023-04-27T22:00:01.986Z,4.10
2023-04-27T22:05:07.427Z,3.90
2023-04-27T22:10:12.730Z,3.80
2023-04-27T22:15:19.450Z,3.70
2023-04-27T22:20:25.617Z,3.60
2023-04-27T22:25:32.379Z,3.60
2023-04-27T22:30:37.766Z,3.50
2023-04-27T22:35:43.596Z,3.40
2023-04-27T22:40:48.724Z,3.30
2023-04-27T22:45:53.907Z,3.20
2023-04-27T22:50:59.105Z,3.10
2023-04-27T22:56:06.159Z,2.90
2023-04-27T23:01:11.908Z,2.80
2023-04-27T23:06:17.168Z,2.70
2023-04-27T23:11:22.208Z,2.60
2023-04-27T23:16:27.522Z,2.50
2023-04-27T23:21:32.835Z,2.40
2023-04-27T23:26:37.923Z,2.40
2023-04-27T23:31:43.990Z,2.20
2023-04-27T23:36:49.913Z,2.20
2023-04-27T23:41:55.129Z,2.10
2023-04-27T23:47:00.315Z,2.00
2023-04-27T23:52:05.688Z,1.90
2023-04-27T23:57:11.377Z,1.80
